ENHD/HAU METAR and TAF weather

Enter ICAO airport designator
Station Type Date Time Source
ENHD METAR 2018/12/12 16:20 UTC NOAA

ENHD 121620Z 13010KT CAVOK 01/M03 Q1030


Station Type Date Time Source
ENHD Decoded METAR 2018/12/12 16:20 UTC NOAA

Haugesund / Karmoy, Norway (ENHD) 59-21N 005-13E 24M
Dec 12, 2018 - 11:20 AM EST / 2018.12.12 1620 UTC
Wind: from the SE (130 degrees) at 12 MPH (10 KT):0
Visibility: greater than 7 mile(s):0
Temperature: 33 F (1 C)
Windchill: 24 F (-4 C):1
Dew Point: 26 F (-3 C)
Relative Humidity: 74%
Pressure (altimeter): 30.42 in. Hg (1030 hPa)
ob: ENHD 121620Z 13010KT CAVOK 01/M03 Q1030
cycle: 16

Station Type Date Time Source
ENHD TAF UTC NOAA

Error!


Example: see airport list